sensor_id;sensor_type;location;lat;lon;timestamp;pressure;altitude;pressure_sealevel;temperature;humidity
75942;BME280;64622;46.220;19.878;2023-10-19T00:00:41;100045.16;;;8.08;100.00
75942;BME280;64622;46.220;19.878;2023-10-19T00:03:12;100048.53;;;8.10;100.00
75942;BME280;64622;46.220;19.878;2023-10-19T00:05:39;100054.81;;;8.18;100.00
75942;BME280;64622;46.220;19.878;2023-10-19T00:08:07;100061.41;;;8.24;100.00
75942;BME280;64622;46.220;19.878;2023-10-19T00:10:43;100065.00;;;8.33;100.00
75942;BME280;64622;46.220;19.878;2023-10-19T00:13:11;100053.87;;;8.37;100.00
75942;BME280;64622;46.220;19.878;2023-10-19T00:15:39;100058.97;;;8.48;100.00
75942;BME280;64622;46.220;19.878;2023-10-19T00:18:07;100056.25;;;8.58;100.00
75942;BME280;64622;46.220;19.878;2023-10-19T00:20:44;100047.94;;;8.61;100.00
75942;BME280;64622;46.220;19.878;2023-10-19T00:23:14;100047.50;;;8.65;100.00
75942;BME280;64622;46.220;19.878;2023-10-19T00:25:45;100041.63;;;8.62;100.00
75942;BME280;64622;46.220;19.878;2023-10-19T00:28:18;100026.91;;;8.58;100.00
75942;BME280;64622;46.220;19.878;2023-10-19T00:30:45;100026.59;;;8.61;100.00
75942;BME280;64622;46.220;19.878;2023-10-19T00:33:12;100028.81;;;8.65;100.00
75942;BME280;64622;46.220;19.878;2023-10-19T00:35:49;100019.34;;;8.53;100.00
75942;BME280;64622;46.220;19.878;2023-10-19T00:38:37;100013.81;;;8.64;100.00
75942;BME280;64622;46.220;19.878;2023-10-19T00:41:08;100009.63;;;8.62;100.00
75942;BME280;64622;46.220;19.878;2023-10-19T00:43:41;100009.78;;;8.60;100.00
75942;BME280;64622;46.220;19.878;2023-10-19T00:46:18;100004.19;;;8.71;100.00
75942;BME280;64622;46.220;19.878;2023-10-19T00:51:20;100008.59;;;8.80;100.00
75942;BME280;64622;46.220;19.878;2023-10-19T00:53:58;100008.75;;;8.79;100.00
75942;BME280;64622;46.220;19.878;2023-10-19T00:56:26;100011.72;;;8.76;100.00
75942;BME280;64622;46.220;19.878;2023-10-19T00:58:59;100005.47;;;8.85;100.00
75942;BME280;64622;46.220;19.878;2023-10-19T01:01:29;99993.50;;;8.89;100.00
75942;BME280;64622;46.220;19.878;2023-10-19T01:03:55;99990.81;;;8.89;100.00
75942;BME280;64622;46.220;19.878;2023-10-19T01:06:24;99990.97;;;8.87;100.00
75942;BME280;64622;46.220;19.878;2023-10-19T01:08:53;99988.38;;;8.95;100.00
75942;BME280;64622;46.220;19.878;2023-10-19T01:11:20;99982.16;;;8.87;100.00
75942;BME280;64622;46.220;19.878;2023-10-19T01:13:47;99988.69;;;8.92;100.00
75942;BME280;64622;46.220;19.878;2023-10-19T01:16:14;99977.34;;;8.90;100.00
75942;BME280;64622;46.220;19.878;2023-10-19T01:18:50;99970.25;;;8.81;100.00
75942;BME280;64622;46.220;19.878;2023-10-19T01:21:24;99978.25;;;8.81;100.00
75942;BME280;64622;46.220;19.878;2023-10-19T01:24:11;99982.56;;;8.74;100.00
75942;BME280;64622;46.220;19.878;2023-10-19T01:26:43;99982.22;;;8.77;100.00
75942;BME280;64622;46.220;19.878;2023-10-19T01:29:10;99973.06;;;8.80;100.00
75942;BME280;64622;46.220;19.878;2023-10-19T01:31:53;99983.22;;;8.76;100.00
75942;BME280;64622;46.220;19.878;2023-10-19T01:34:30;99987.03;;;8.74;100.00
75942;BME280;64622;46.220;19.878;2023-10-19T01:36:58;99983.00;;;8.70;100.00
75942;BME280;64622;46.220;19.878;2023-10-19T01:39:33;99984.38;;;8.74;100.00
75942;BME280;64622;46.220;19.878;2023-10-19T01:42:03;99968.34;;;8.74;100.00
75942;BME280;64622;46.220;19.878;2023-10-19T01:44:34;99953.66;;;8.70;100.00
75942;BME280;64622;46.220;19.878;2023-10-19T01:47:02;99954.78;;;8.67;100.00
75942;BME280;64622;46.220;19.878;2023-10-19T01:49:32;99948.00;;;8.73;100.00
75942;BME280;64622;46.220;19.878;2023-10-19T01:51:58;99937.78;;;8.68;100.00
75942;BME280;64622;46.220;19.878;2023-10-19T01:54:27;99951.34;;;8.75;100.00
75942;BME280;64622;46.220;19.878;2023-10-19T01:56:55;99944.66;;;8.71;100.00
75942;BME280;64622;46.220;19.878;2023-10-19T01:59:23;99949.56;;;8.83;100.00
75942;BME280;64622;46.220;19.878;2023-10-19T02:01:54;99950.56;;;8.82;100.00
75942;BME280;64622;46.220;19.878;2023-10-19T02:04:21;99949.69;;;8.74;100.00
75942;BME280;64622;46.220;19.878;2023-10-19T02:06:48;99949.38;;;8.77;100.00
75942;BME280;64622;46.220;19.878;2023-10-19T02:09:16;99953.56;;;8.79;100.00
75942;BME280;64622;46.220;19.878;2023-10-19T02:12:01;99945.38;;;8.81;100.00
75942;BME280;64622;46.220;19.878;2023-10-19T02:14:28;99949.94;;;8.88;100.00
75942;BME280;64622;46.220;19.878;2023-10-19T02:16:59;99935.41;;;8.83;100.00
75942;BME280;64622;46.220;19.878;2023-10-19T02:19:28;99935.16;;;8.94;100.00
75942;BME280;64622;46.220;19.878;2023-10-19T02:21:57;99936.00;;;8.94;100.00
75942;BME280;64622;46.220;19.878;2023-10-19T02:24:25;99932.31;;;8.95;100.00
75942;BME280;64622;46.220;19.878;2023-10-19T02:26:56;99926.66;;;8.98;100.00
75942;BME280;64622;46.220;19.878;2023-10-19T02:29:23;99917.84;;;9.06;100.00
75942;BME280;64622;46.220;19.878;2023-10-19T02:31:51;99919.28;;;9.18;100.00
75942;BME280;64622;46.220;19.878;2023-10-19T02:34:19;99914.16;;;9.24;100.00
75942;BME280;64622;46.220;19.878;2023-10-19T02:36:46;99910.31;;;9.27;100.00
75942;BME280;64622;46.220;19.878;2023-10-19T02:39:14;99905.12;;;9.25;100.00
75942;BME280;64622;46.220;19.878;2023-10-19T02:41:43;99896.47;;;9.31;100.00
75942;BME280;64622;46.220;19.878;2023-10-19T02:44:15;99908.72;;;9.42;100.00
75942;BME280;64622;46.220;19.878;2023-10-19T02:46:45;99902.37;;;9.43;100.00
75942;BME280;64622;46.220;19.878;2023-10-19T02:49:15;99904.84;;;9.36;100.00
75942;BME280;64622;46.220;19.878;2023-10-19T02:51:45;99910.69;;;9.40;100.00
75942;BME280;64622;46.220;19.878;2023-10-19T02:54:13;99897.38;;;9.48;100.00
75942;BME280;64622;46.220;19.878;2023-10-19T02:56:51;99894.37;;;9.51;100.00
75942;BME280;64622;46.220;19.878;2023-10-19T02:59:24;99899.41;;;9.54;100.00
75942;BME280;64622;46.220;19.878;2023-10-19T03:01:59;99895.22;;;9.51;100.00
75942;BME280;64622;46.220;19.878;2023-10-19T03:04:34;99895.41;;;9.58;100.00
75942;BME280;64622;46.220;19.878;2023-10-19T03:07:05;99908.56;;;9.51;100.00
75942;BME280;64622;46.220;19.878;2023-10-19T03:09:33;99907.25;;;9.55;100.00
75942;BME280;64622;46.220;19.878;2023-10-19T03:12:04;99885.38;;;9.52;100.00
75942;BME280;64622;46.220;19.878;2023-10-19T03:14:35;99882.53;;;9.53;100.00
75942;BME280;64622;46.220;19.878;2023-10-19T03:17:03;99869.31;;;9.44;100.00
75942;BME280;64622;46.220;19.878;2023-10-19T03:19:31;99869.47;;;9.42;100.00
75942;BME280;64622;46.220;19.878;2023-10-19T03:21:57;99856.63;;;9.38;100.00
75942;BME280;64622;46.220;19.878;2023-10-19T03:24:26;99849.97;;;9.42;100.00
75942;BME280;64622;46.220;19.878;2023-10-19T03:27:03;99849.97;;;9.50;100.00
75942;BME280;64622;46.220;19.878;2023-10-19T03:29:43;99848.28;;;9.49;100.00
75942;BME280;64622;46.220;19.878;2023-10-19T03:32:14;99838.28;;;9.51;100.00
75942;BME280;64622;46.220;19.878;2023-10-19T03:34:45;99851.69;;;9.67;100.00
75942;BME280;64622;46.220;19.878;2023-10-19T03:37:16;99838.00;;;9.70;100.00
75942;BME280;64622;46.220;19.878;2023-10-19T03:39:46;99843.19;;;9.71;100.00
75942;BME280;64622;46.220;19.878;2023-10-19T03:42:13;99837.34;;;9.68;100.00
75942;BME280;64622;46.220;19.878;2023-10-19T03:44:43;99834.66;;;9.76;100.00
75942;BME280;64622;46.220;19.878;2023-10-19T03:47:17;99838.00;;;9.78;100.00
75942;BME280;64622;46.220;19.878;2023-10-19T03:49:47;99820.81;;;9.80;100.00
75942;BME280;64622;46.220;19.878;2023-10-19T03:52:13;99813.81;;;9.79;100.00
75942;BME280;64622;46.220;19.878;2023-10-19T03:54:41;99816.81;;;9.84;100.00
75942;BME280;64622;46.220;19.878;2023-10-19T03:57:15;99804.78;;;9.80;100.00
75942;BME280;64622;46.220;19.878;2023-10-19T03:59:55;99800.94;;;9.83;100.00
75942;BME280;64622;46.220;19.878;2023-10-19T04:02:25;99796.41;;;9.83;100.00
75942;BME280;64622;46.220;19.878;2023-10-19T04:05:04;99801.09;;;9.81;100.00
75942;BME280;64622;46.220;19.878;2023-10-19T04:07:31;99791.06;;;9.83;100.00
75942;BME280;64622;46.220;19.878;2023-10-19T04:09:57;99788.25;;;9.93;100.00
75942;BME280;64622;46.220;19.878;2023-10-19T04:12:26;99779.37;;;9.92;100.00
75942;BME280;64622;46.220;19.878;2023-10-19T04:14:57;99780.56;;;9.98;100.00
75942;BME280;64622;46.220;19.878;2023-10-19T04:17:23;99779.03;;;10.03;100.00
75942;BME280;64622;46.220;19.878;2023-10-19T04:19:50;99768.00;;;9.98;100.00
75942;BME280;64622;46.220;19.878;2023-10-19T04:22:21;99761.34;;;10.02;100.00
75942;BME280;64622;46.220;19.878;2023-10-19T04:24:52;99767.03;;;9.99;100.00
75942;BME280;64622;46.220;19.878;2023-10-19T04:27:18;99758.84;;;9.93;100.00
75942;BME280;64622;46.220;19.878;2023-10-19T04:29:49;99748.13;;;10.01;100.00
75942;BME280;64622;46.220;19.878;2023-10-19T04:32:16;99748.66;;;10.12;100.00
75942;BME280;64622;46.220;19.878;2023-10-19T04:34:54;99745.00;;;10.05;100.00
75942;BME280;64622;46.220;19.878;2023-10-19T04:37:21;99754.69;;;10.06;100.00
75942;BME280;64622;46.220;19.878;2023-10-19T04:39:50;99752.84;;;10.07;100.00
75942;BME280;64622;46.220;19.878;2023-10-19T04:42:16;99754.69;;;10.06;100.00
75942;BME280;64622;46.220;19.878;2023-10-19T04:44:43;99763.03;;;10.11;100.00
75942;BME280;64622;46.220;19.878;2023-10-19T04:47:09;99754.00;;;10.12;100.00
75942;BME280;64622;46.220;19.878;2023-10-19T04:49:36;99755.84;;;10.12;100.00
75942;BME280;64622;46.220;19.878;2023-10-19T04:52:04;99746.16;;;10.19;100.00
75942;BME280;64622;46.220;19.878;2023-10-19T04:54:31;99739.94;;;10.18;100.00
75942;BME280;64622;46.220;19.878;2023-10-19T04:56:57;99748.28;;;10.23;100.00
75942;BME280;64622;46.220;19.878;2023-10-19T04:59:24;99759.84;;;10.16;100.00
75942;BME280;64622;46.220;19.878;2023-10-19T05:01:50;99772.87;;;10.19;100.00
75942;BME280;64622;46.220;19.878;2023-10-19T05:04:17;99764.16;;;10.01;100.00
75942;BME280;64622;46.220;19.878;2023-10-19T05:06:44;99752.16;;;9.81;100.00
75942;BME280;64622;46.220;19.878;2023-10-19T05:09:10;99742.63;;;9.70;100.00
75942;BME280;64622;46.220;19.878;2023-10-19T05:11:38;99729.25;;;9.62;100.00
75942;BME280;64622;46.220;19.878;2023-10-19T05:14:06;99736.81;;;9.67;100.00
75942;BME280;64622;46.220;19.878;2023-10-19T05:16:33;99757.31;;;9.66;100.00
75942;BME280;64622;46.220;19.878;2023-10-19T05:18:59;99757.00;;;9.69;100.00
75942;BME280;64622;46.220;19.878;2023-10-19T05:21:26;99753.66;;;9.75;100.00
75942;BME280;64622;46.220;19.878;2023-10-19T05:23:53;99760.00;;;9.74;100.00
75942;BME280;64622;46.220;19.878;2023-10-19T05:26:19;99765.84;;;9.78;100.00
75942;BME280;64622;46.220;19.878;2023-10-19T05:28:46;99759.00;;;9.83;100.00
75942;BME280;64622;46.220;19.878;2023-10-19T05:31:14;99746.47;;;9.84;100.00
75942;BME280;64622;46.220;19.878;2023-10-19T05:33:41;99738.78;;;9.89;100.00
75942;BME280;64622;46.220;19.878;2023-10-19T05:36:08;99752.31;;;9.95;100.00
75942;BME280;64622;46.220;19.878;2023-10-19T05:38:34;99748.97;;;9.93;100.00
75942;BME280;64622;46.220;19.878;2023-10-19T05:41:01;99742.97;;;9.99;100.00
75942;BME280;64622;46.220;19.878;2023-10-19T05:43:28;99740.66;;;10.04;100.00
75942;BME280;64622;46.220;19.878;2023-10-19T05:45:54;99740.13;;;10.09;100.00
75942;BME280;64622;46.220;19.878;2023-10-19T05:48:23;99736.81;;;10.07;100.00
75942;BME280;64622;46.220;19.878;2023-10-19T05:50:50;99732.59;;;10.12;100.00
75942;BME280;64622;46.220;19.878;2023-10-19T05:53:17;99732.28;;;10.15;100.00
75942;BME280;64622;46.220;19.878;2023-10-19T05:55:44;99735.28;;;10.20;100.00
75942;BME280;64622;46.220;19.878;2023-10-19T05:58:12;99730.09;;;10.19;100.00
75942;BME280;64622;46.220;19.878;2023-10-19T06:00:39;99728.75;;;10.23;100.00
75942;BME280;64622;46.220;19.878;2023-10-19T06:03:06;99732.78;;;10.19;100.00
75942;BME280;64622;46.220;19.878;2023-10-19T06:05:32;99734.09;;;10.23;100.00
75942;BME280;64622;46.220;19.878;2023-10-19T06:08:00;99739.28;;;10.24;100.00
75942;BME280;64622;46.220;19.878;2023-10-19T06:10:28;99724.75;;;10.19;100.00
75942;BME280;64622;46.220;19.878;2023-10-19T06:12:55;99728.06;;;10.21;100.00
75942;BME280;64622;46.220;19.878;2023-10-19T06:15:23;99732.09;;;10.25;100.00
75942;BME280;64622;46.220;19.878;2023-10-19T06:17:51;99724.91;;;10.17;100.00
75942;BME280;64622;46.220;19.878;2023-10-19T06:20:19;99734.75;;;10.25;100.00
75942;BME280;64622;46.220;19.878;2023-10-19T06:22:55;99727.06;;;10.30;100.00
75942;BME280;64622;46.220;19.878;2023-10-19T06:25:32;99717.53;;;10.35;100.00
75942;BME280;64622;46.220;19.878;2023-10-19T06:28:01;99733.72;;;10.42;100.00
75942;BME280;64622;46.220;19.878;2023-10-19T06:30:28;99731.19;;;10.48;100.00
75942;BME280;64622;46.220;19.878;2023-10-19T06:32:59;99724.00;;;10.49;100.00
75942;BME280;64622;46.220;19.878;2023-10-19T06:35:33;99729.69;;;10.54;100.00
75942;BME280;64622;46.220;19.878;2023-10-19T06:38:00;99729.47;;;10.63;100.00
75942;BME280;64622;46.220;19.878;2023-10-19T06:40:27;99724.59;;;10.67;100.00
75942;BME280;64622;46.220;19.878;2023-10-19T06:42:55;99725.22;;;10.77;100.00
75942;BME280;64622;46.220;19.878;2023-10-19T06:45:25;99731.72;;;10.82;100.00
75942;BME280;64622;46.220;19.878;2023-10-19T06:47:52;99736.22;;;10.90;100.00
75942;BME280;64622;46.220;19.878;2023-10-19T06:50:21;99726.84;;;10.94;100.00
75942;BME280;64622;46.220;19.878;2023-10-19T06:52:48;99721.25;;;11.03;100.00
75942;BME280;64622;46.220;19.878;2023-10-19T06:55:16;99719.34;;;11.12;100.00
75942;BME280;64622;46.220;19.878;2023-10-19T06:57:47;99724.19;;;11.16;100.00
75942;BME280;64622;46.220;19.878;2023-10-19T07:00:15;99724.91;;;11.10;100.00
75942;BME280;64622;46.220;19.878;2023-10-19T07:02:47;99707.12;;;11.17;100.00
75942;BME280;64622;46.220;19.878;2023-10-19T07:05:15;99700.56;;;11.20;100.00
75942;BME280;64622;46.220;19.878;2023-10-19T07:07:45;99712.59;;;11.24;100.00
75942;BME280;64622;46.220;19.878;2023-10-19T07:10:13;99698.53;;;11.22;100.00
75942;BME280;64622;46.220;19.878;2023-10-19T07:12:42;99707.56;;;11.29;100.00
75942;BME280;64622;46.220;19.878;2023-10-19T07:15:09;99699.13;;;11.32;100.00
75942;BME280;64622;46.220;19.878;2023-10-19T07:17:46;99703.81;;;11.38;100.00
75942;BME280;64622;46.220;19.878;2023-10-19T07:20:15;99704.59;;;11.46;100.00
75942;BME280;64622;46.220;19.878;2023-10-19T07:23:02;99702.19;;;11.51;100.00
75942;BME280;64622;46.220;19.878;2023-10-19T07:25:48;99707.50;;;11.59;100.00
75942;BME280;64622;46.220;19.878;2023-10-19T07:28:19;99696.37;;;11.70;100.00
75942;BME280;64622;46.220;19.878;2023-10-19T07:30:45;99695.09;;;11.81;100.00
75942;BME280;64622;46.220;19.878;2023-10-19T07:33:13;99698.38;;;11.91;100.00
75942;BME280;64622;46.220;19.878;2023-10-19T07:35:47;99704.13;;;11.88;100.00
75942;BME280;64622;46.220;19.878;2023-10-19T07:38:14;99700.69;;;11.94;100.00
75942;BME280;64622;46.220;19.878;2023-10-19T07:40:42;99692.59;;;12.16;100.00
75942;BME280;64622;46.220;19.878;2023-10-19T07:43:10;99696.19;;;12.23;100.00
75942;BME280;64622;46.220;19.878;2023-10-19T07:45:36;99696.03;;;12.39;100.00
75942;BME280;64622;46.220;19.878;2023-10-19T07:48:04;99683.16;;;12.49;100.00
75942;BME280;64622;46.220;19.878;2023-10-19T07:50:38;99688.59;;;12.85;100.00
75942;BME280;64622;46.220;19.878;2023-10-19T07:53:07;99687.09;;;12.97;100.00
75942;BME280;64622;46.220;19.878;2023-10-19T07:55:34;99673.94;;;13.37;100.00
75942;BME280;64622;46.220;19.878;2023-10-19T07:58:01;99677.19;;;13.54;100.00
75942;BME280;64622;46.220;19.878;2023-10-19T08:00:29;99682.75;;;13.31;100.00
75942;BME280;64622;46.220;19.878;2023-10-19T08:02:56;99676.78;;;13.57;100.00
75942;BME280;64622;46.220;19.878;2023-10-19T08:05:24;99671.41;;;13.78;100.00
75942;BME280;64622;46.220;19.878;2023-10-19T08:07:52;99656.88;;;13.72;100.00
75942;BME280;64622;46.220;19.878;2023-10-19T08:10:19;99671.56;;;13.70;100.00
75942;BME280;64622;46.220;19.878;2023-10-19T08:12:48;99658.37;;;14.02;100.00
75942;BME280;64622;46.220;19.878;2023-10-19T08:15:16;99656.84;;;15.02;100.00
75942;BME280;64622;46.220;19.878;2023-10-19T08:17:47;99652.94;;;15.11;100.00
75942;BME280;64622;46.220;19.878;2023-10-19T08:20:14;99644.22;;;15.02;100.00
75942;BME280;64622;46.220;19.878;2023-10-19T08:23:03;99641.13;;;15.18;100.00
75942;BME280;64622;46.220;19.878;2023-10-19T08:25:31;99648.69;;;15.62;100.00
75942;BME280;64622;46.220;19.878;2023-10-19T08:27:57;99640.94;;;15.33;100.00
75942;BME280;64622;46.220;19.878;2023-10-19T08:30:24;99643.31;;;16.07;100.00
75942;BME280;64622;46.220;19.878;2023-10-19T08:32:51;99644.75;;;15.64;100.00
75942;BME280;64622;46.220;19.878;2023-10-19T08:35:20;99631.47;;;15.95;99.65
75942;BME280;64622;46.220;19.878;2023-10-19T08:37:51;99633.19;;;16.66;94.99
75942;BME280;64622;46.220;19.878;2023-10-19T08:40:19;99638.78;;;17.53;90.34
75942;BME280;64622;46.220;19.878;2023-10-19T08:42:46;99621.50;;;16.79;89.87
75942;BME280;64622;46.220;19.878;2023-10-19T08:45:15;99628.81;;;16.72;93.36
75942;BME280;64622;46.220;19.878;2023-10-19T08:48:02;99620.34;;;17.37;89.51
75942;BME280;64622;46.220;19.878;2023-10-19T08:50:32;99615.25;;;18.02;85.93
75942;BME280;64622;46.220;19.878;2023-10-19T08:53:04;99605.72;;;18.18;86.04
75942;BME280;64622;46.220;19.878;2023-10-19T08:55:32;99605.69;;;17.57;84.80
75942;BME280;64622;46.220;19.878;2023-10-19T08:58:00;99597.22;;;17.47;86.07
75942;BME280;64622;46.220;19.878;2023-10-19T09:00:27;99625.66;;;16.81;90.07
75942;BME280;64622;46.220;19.878;2023-10-19T09:02:54;99598.59;;;16.88;91.62
75942;BME280;64622;46.220;19.878;2023-10-19T09:05:22;99600.13;;;16.71;91.95
75942;BME280;64622;46.220;19.878;2023-10-19T09:07:49;99619.47;;;16.68;92.96
75942;BME280;64622;46.220;19.878;2023-10-19T09:10:28;99599.47;;;17.50;88.50
75942;BME280;64622;46.220;19.878;2023-10-19T09:13:03;99588.16;;;18.02;84.23
75942;BME280;64622;46.220;19.878;2023-10-19T09:15:31;99581.56;;;18.16;80.81
75942;BME280;64622;46.220;19.878;2023-10-19T09:18:13;99587.91;;;18.28;80.35
75942;BME280;64622;46.220;19.878;2023-10-19T09:20:45;99585.06;;;19.07;75.82
75942;BME280;64622;46.220;19.878;2023-10-19T09:23:30;99586.56;;;19.03;75.59
75942;BME280;64622;46.220;19.878;2023-10-19T09:26:00;99582.66;;;18.99;76.85
75942;BME280;64622;46.220;19.878;2023-10-19T09:28:29;99561.75;;;19.70;70.21
75942;BME280;64622;46.220;19.878;2023-10-19T09:31:00;99559.81;;;19.36;70.77
75942;BME280;64622;46.220;19.878;2023-10-19T09:33:27;99591.03;;;18.97;73.19
75942;BME280;64622;46.220;19.878;2023-10-19T09:35:55;99577.50;;;19.27;71.40
75942;BME280;64622;46.220;19.878;2023-10-19T09:38:27;99583.44;;;19.17;71.28
75942;BME280;64622;46.220;19.878;2023-10-19T09:40:55;99589.66;;;18.77;74.52
75942;BME280;64622;46.220;19.878;2023-10-19T09:45:51;99555.34;;;18.82;74.72
75942;BME280;64622;46.220;19.878;2023-10-19T09:48:19;99549.56;;;19.08;73.44
75942;BME280;64622;46.220;19.878;2023-10-19T09:50:51;99549.56;;;19.38;70.25
75942;BME280;64622;46.220;19.878;2023-10-19T09:53:27;99547.12;;;19.71;67.71
75942;BME280;64622;46.220;19.878;2023-10-19T09:55:57;99543.56;;;19.59;70.05
75942;BME280;64622;46.220;19.878;2023-10-19T09:58:27;99542.63;;;19.76;67.33
75942;BME280;64622;46.220;19.878;2023-10-19T10:00:58;99546.41;;;20.33;65.50
75942;BME280;64622;46.220;19.878;2023-10-19T10:03:48;99540.72;;;20.00;64.84
75942;BME280;64622;46.220;19.878;2023-10-19T10:07:03;99536.50;;;19.69;67.46
75942;BME280;64622;46.220;19.878;2023-10-19T10:09:03;99531.28;;;20.14;64.97
75942;BME280;64622;46.220;19.878;2023-10-19T10:11:30;99522.56;;;19.54;68.41
75942;BME280;64622;46.220;19.878;2023-10-19T10:13:57;99513.25;;;19.73;68.14
75942;BME280;64622;46.220;19.878;2023-10-19T10:16:26;99519.56;;;19.33;70.07
75942;BME280;64622;46.220;19.878;2023-10-19T10:18:58;99520.09;;;20.10;67.75
75942;BME280;64622;46.220;19.878;2023-10-19T10:21:27;99511.69;;;19.54;67.01
75942;BME280;64622;46.220;19.878;2023-10-19T10:23:59;99509.22;;;19.64;68.98
75942;BME280;64622;46.220;19.878;2023-10-19T10:26:28;99509.06;;;19.36;70.51
75942;BME280;64622;46.220;19.878;2023-10-19T10:29:14;99509.91;;;19.07;72.71
75942;BME280;64622;46.220;19.878;2023-10-19T10:31:43;99507.59;;;19.11;72.42
75942;BME280;64622;46.220;19.878;2023-10-19T10:37:07;99499.91;;;18.67;75.98
75942;BME280;64622;46.220;19.878;2023-10-19T10:39:35;99513.94;;;18.46;77.64
75942;BME280;64622;46.220;19.878;2023-10-19T10:42:08;99509.97;;;18.48;79.04
75942;BME280;64622;46.220;19.878;2023-10-19T10:44:47;99492.03;;;18.47;79.06
75942;BME280;64622;46.220;19.878;2023-10-19T10:47:20;99508.84;;;18.38;80.89
75942;BME280;64622;46.220;19.878;2023-10-19T10:49:57;99493.94;;;18.47;81.17
75942;BME280;64622;46.220;19.878;2023-10-19T10:55:07;99473.28;;;18.28;82.04
75942;BME280;64622;46.220;19.878;2023-10-19T10:57:39;99473.47;;;18.33;82.03
75942;BME280;64622;46.220;19.878;2023-10-19T11:02:44;99466.47;;;18.43;84.37
75942;BME280;64622;46.220;19.878;2023-10-19T11:05:13;99467.22;;;18.32;86.41
75942;BME280;64622;46.220;19.878;2023-10-19T11:07:41;99463.53;;;18.27;86.33
75942;BME280;64622;46.220;19.878;2023-10-19T11:10:26;99452.53;;;18.22;88.62
75942;BME280;64622;46.220;19.878;2023-10-19T11:13:00;99455.22;;;18.40;89.61
75942;BME280;64622;46.220;19.878;2023-10-19T11:15:27;99453.72;;;18.44;91.05
75942;BME280;64622;46.220;19.878;2023-10-19T11:17:54;99441.56;;;18.64;88.84
75942;BME280;64622;46.220;19.878;2023-10-19T11:20:21;99436.28;;;18.69;85.93
75942;BME280;64622;46.220;19.878;2023-10-19T11:22:50;99445.25;;;18.81;86.82
75942;BME280;64622;46.220;19.878;2023-10-19T11:25:18;99433.84;;;18.91;85.58
75942;BME280;64622;46.220;19.878;2023-10-19T11:27:45;99432.66;;;18.87;85.71
75942;BME280;64622;46.220;19.878;2023-10-19T11:30:22;99424.03;;;18.90;85.35
75942;BME280;64622;46.220;19.878;2023-10-19T11:32:50;99419.34;;;18.97;84.03
75942;BME280;64622;46.220;19.878;2023-10-19T11:35:19;99425.72;;;18.91;84.38
75942;BME280;64622;46.220;19.878;2023-10-19T11:40:14;99411.12;;;19.03;83.87
75942;BME280;64622;46.220;19.878;2023-10-19T11:42:42;99404.13;;;19.07;82.73
75942;BME280;64622;46.220;19.878;2023-10-19T11:45:09;99408.88;;;19.12;82.44
75942;BME280;64622;46.220;19.878;2023-10-19T11:47:37;99406.44;;;19.22;82.58
75942;BME280;64622;46.220;19.878;2023-10-19T11:50:05;99397.56;;;19.26;82.27
75942;BME280;64622;46.220;19.878;2023-10-19T11:52:31;99391.31;;;19.37;81.63
75942;BME280;64622;46.220;19.878;2023-10-19T11:54:59;99392.94;;;19.50;80.84
75942;BME280;64622;46.220;19.878;2023-10-19T11:57:25;99379.88;;;19.58;80.79
75942;BME280;64622;46.220;19.878;2023-10-19T11:59:52;99373.94;;;19.61;79.86
75942;BME280;64622;46.220;19.878;2023-10-19T12:02:19;99378.53;;;19.72;79.81
75942;BME280;64622;46.220;19.878;2023-10-19T12:04:46;99372.81;;;19.97;76.07
75942;BME280;64622;46.220;19.878;2023-10-19T12:07:12;99374.03;;;20.17;73.94
75942;BME280;64622;46.220;19.878;2023-10-19T12:09:39;99383.69;;;20.25;73.54
75942;BME280;64622;46.220;19.878;2023-10-19T12:12:08;99379.84;;;20.37;72.12
75942;BME280;64622;46.220;19.878;2023-10-19T12:14:36;99368.91;;;20.32;74.38
75942;BME280;64622;46.220;19.878;2023-10-19T12:17:03;99356.72;;;20.35;74.79
75942;BME280;64622;46.220;19.878;2023-10-19T12:19:30;99359.72;;;20.66;72.88
75942;BME280;64622;46.220;19.878;2023-10-19T12:21:57;99354.06;;;20.84;69.03
75942;BME280;64622;46.220;19.878;2023-10-19T12:24:23;99343.59;;;21.09;66.68
75942;BME280;64622;46.220;19.878;2023-10-19T12:26:50;99345.37;;;21.37;65.38
75942;BME280;64622;46.220;19.878;2023-10-19T12:29:17;99337.84;;;21.82;63.37
75942;BME280;64622;46.220;19.878;2023-10-19T12:31:47;99331.31;;;21.66;63.40
75942;BME280;64622;46.220;19.878;2023-10-19T12:34:14;99327.06;;;21.92;61.27
75942;BME280;64622;46.220;19.878;2023-10-19T12:36:42;99332.44;;;21.87;61.23
75942;BME280;64622;46.220;19.878;2023-10-19T12:39:12;99322.47;;;21.97;60.97
75942;BME280;64622;46.220;19.878;2023-10-19T12:41:59;99321.16;;;22.84;57.78
75942;BME280;64622;46.220;19.878;2023-10-19T12:44:27;99315.03;;;23.45;56.64
75942;BME280;64622;46.220;19.878;2023-10-19T12:47:03;99322.72;;;23.12;56.78
75942;BME280;64622;46.220;19.878;2023-10-19T12:49:37;99312.09;;;23.62;55.59
75942;BME280;64622;46.220;19.878;2023-10-19T12:52:04;99320.22;;;23.47;54.74
75942;BME280;64622;46.220;19.878;2023-10-19T12:54:30;99329.63;;;22.83;56.05
75942;BME280;64622;46.220;19.878;2023-10-19T12:56:56;99323.25;;;23.09;55.15
75942;BME280;64622;46.220;19.878;2023-10-19T12:59:24;99312.19;;;22.89;56.16
75942;BME280;64622;46.220;19.878;2023-10-19T13:01:51;99311.75;;;23.07;55.68
75942;BME280;64622;46.220;19.878;2023-10-19T13:04:21;99305.59;;;22.85;55.36
75942;BME280;64622;46.220;19.878;2023-10-19T13:06:51;99307.13;;;23.07;55.20
75942;BME280;64622;46.220;19.878;2023-10-19T13:09:18;99303.25;;;22.98;54.28
75942;BME280;64622;46.220;19.878;2023-10-19T13:12:00;99302.31;;;23.19;54.68
75942;BME280;64622;46.220;19.878;2023-10-19T13:14:26;99291.69;;;23.18;54.56